Time;durP1;ratioP1;P1;durP2;ratioP2;P2;SDS_P1;SDS_P2;PMS_P1;PMS_P2;Temp;Humidity;BMP_temperature;BMP_pressure;BME280_temperature;BME280_humidity;BME280_pressure;Samples;Min_cycle;Max_cycle;Signal;HPM_P1;HPM_P2
2024/04/11 00:01:28;;;;;;;3.47;1.65;;;;;;;;;;5415683;26;20332;-80
2024/04/11 00:03:55;;;;;;;3.22;1.80;;;;;;;;;;5415754;26;20336;-80
2024/04/11 00:06:21;;;;;;;2.50;1.45;;;;;;;;;;5415731;26;20335;-80
2024/04/11 00:08:47;;;;;;;3.38;1.70;;;;;;;;;;5415645;26;20704;-80
2024/04/11 00:11:13;;;;;;;2.88;1.58;;;;;;;;;;5415762;26;20328;-80
2024/04/11 00:13:39;;;;;;;4.93;1.63;;;;;;;;;;5415601;26;20323;-80
2024/04/11 00:16:05;;;;;;;2.05;1.60;;;;;;;;;;5415727;26;20402;-80
2024/04/11 00:18:31;;;;;;;4.28;1.90;;;;;;;;;;5415623;26;20356;-80
2024/04/11 00:20:57;;;;;;;2.38;1.75;;;;;;;;;;5416069;26;20726;-80
2024/04/11 00:23:24;;;;;;;3.53;1.70;;;;;;;;;;5415744;26;20356;-80
2024/04/11 00:25:57;;;;;;;4.53;1.25;;;;;;;;;;5415613;26;20689;-80
2024/04/11 00:28:23;;;;;;;3.55;1.50;;;;;;;;;;5414983;26;20477;-80
2024/04/11 00:30:49;;;;;;;3.72;1.60;;;;;;;;;;5416190;26;20335;-80
2024/04/11 00:33:15;;;;;;;4.00;1.50;;;;;;;;;;5415665;26;20372;-80
2024/04/11 00:35:42;;;;;;;3.38;1.73;;;;;;;;;;5415168;26;20698;-80
2024/04/11 00:38:10;;;;;;;2.67;1.30;;;;;;;;;;5414986;26;20355;-80
2024/04/11 00:40:36;;;;;;;3.22;1.50;;;;;;;;;;5415009;26;20880;-80
2024/04/11 00:43:02;;;;;;;3.83;1.85;;;;;;;;;;5415447;26;20336;-80
2024/04/11 00:45:30;;;;;;;3.22;1.50;;;;;;;;;;5415208;26;20848;-80
2024/04/11 00:47:56;;;;;;;3.05;1.40;;;;;;;;;;5412818;26;20339;-80
2024/04/11 00:50:22;;;;;;;4.05;1.70;;;;;;;;;;5415184;26;20374;-80
2024/04/11 00:52:49;;;;;;;3.75;1.85;;;;;;;;;;5415156;26;20412;-80
2024/04/11 00:55:15;;;;;;;2.90;1.70;;;;;;;;;;5415347;26;20884;-80
2024/04/11 00:57:41;;;;;;;2.83;1.73;;;;;;;;;;5415574;26;20367;-80
2024/04/11 01:00:10;;;;;;;4.00;1.55;;;;;;;;;;5415569;26;20685;-80
2024/04/11 01:02:36;;;;;;;3.42;1.67;;;;;;;;;;5416094;26;20327;-80
2024/04/11 01:05:03;;;;;;;2.65;1.50;;;;;;;;;;5415999;26;20339;-80
2024/04/11 01:07:29;;;;;;;3.30;1.50;;;;;;;;;;5415496;26;20821;-80
2024/04/11 01:09:55;;;;;;;2.38;1.42;;;;;;;;;;5417436;26;21235;-80
2024/04/11 01:12:22;;;;;;;2.53;1.55;;;;;;;;;;5419116;26;20425;-80
2024/04/11 01:14:51;;;;;;;3.00;1.38;;;;;;;;;;5419072;26;20332;-80
2024/04/11 01:17:17;;;;;;;3.28;1.50;;;;;;;;;;5418863;26;20343;-80
2024/04/11 01:19:44;;;;;;;4.18;1.73;;;;;;;;;;5419102;26;20335;-80
2024/04/11 01:22:10;;;;;;;2.60;1.50;;;;;;;;;;5418567;26;20355;-80
2024/04/11 01:24:39;;;;;;;3.00;1.40;;;;;;;;;;5418447;26;20720;-80
2024/04/11 01:27:07;;;;;;;3.58;1.60;;;;;;;;;;5417865;26;20711;-80
2024/04/11 01:29:35;;;;;;;3.78;1.52;;;;;;;;;;5417665;26;20442;-80
2024/04/11 01:32:03;;;;;;;2.25;1.48;;;;;;;;;;5417710;26;20368;-80
2024/04/11 01:34:30;;;;;;;2.15;1.50;;;;;;;;;;5418111;26;20343;-80
2024/04/11 01:36:56;;;;;;;2.42;1.65;;;;;;;;;;5418183;26;20874;-80
2024/04/11 01:39:22;;;;;;;3.25;1.73;;;;;;;;;;5417518;26;20843;-80
2024/04/11 01:41:48;;;;;;;3.28;1.77;;;;;;;;;;5417728;26;20348;-80
2024/04/11 01:44:14;;;;;;;2.75;1.90;;;;;;;;;;5417452;26;20669;-80
2024/04/11 01:46:40;;;;;;;3.00;1.63;;;;;;;;;;5417445;26;20355;-80
2024/04/11 01:49:06;;;;;;;3.20;1.63;;;;;;;;;;5415402;26;20324;-80
2024/04/11 01:51:32;;;;;;;2.95;1.80;;;;;;;;;;5417271;26;20821;-80
2024/04/11 01:53:58;;;;;;;2.70;1.45;;;;;;;;;;5417395;26;20370;-80
2024/04/11 01:56:25;;;;;;;2.60;1.70;;;;;;;;;;5416999;26;20411;-80
2024/04/11 01:58:51;;;;;;;2.28;1.50;;;;;;;;;;5417105;26;20332;-80
2024/04/11 02:01:19;;;;;;;4.25;1.73;;;;;;;;;;5417456;26;20327;-80
2024/04/11 02:03:45;;;;;;;2.60;1.90;;;;;;;;;;5417175;26;21221;-80
2024/04/11 02:06:14;;;;;;;2.90;1.63;;;;;;;;;;5416806;26;20367;-80
2024/04/11 02:08:41;;;;;;;3.55;1.63;;;;;;;;;;5416917;26;20336;-80
2024/04/11 02:11:07;;;;;;;3.47;1.55;;;;;;;;;;5416965;26;20328;-80
2024/04/11 02:13:33;;;;;;;3.65;1.75;;;;;;;;;;5417389;26;20324;-80
2024/04/11 02:15:59;;;;;;;3.65;1.80;;;;;;;;;;5416912;26;20332;-80
2024/04/11 02:18:29;;;;;;;3.95;2.00;;;;;;;;;;5417113;26;20324;-80
2024/04/11 02:20:55;;;;;;;3.07;1.53;;;;;;;;;;5416119;26;20441;-80
2024/04/11 02:23:20;;;;;;;3.60;1.77;;;;;;;;;;5416032;26;20368;-80
2024/04/11 02:25:47;;;;;;;4.45;1.95;;;;;;;;;;5418245;26;20339;-80
2024/04/11 02:28:13;;;;;;;3.85;2.00;;;;;;;;;;5416593;26;20335;-80
2024/04/11 02:30:39;;;;;;;3.17;1.87;;;;;;;;;;5416884;26;20798;-80
2024/04/11 02:33:05;;;;;;;3.75;1.80;;;;;;;;;;5416204;26;20347;-80
2024/04/11 02:35:37;;;;;;;2.87;1.73;;;;;;;;;;5416708;26;20542;-80
2024/04/11 02:38:03;;;;;;;3.50;1.83;;;;;;;;;;5417307;26;20445;-80
2024/04/11 02:40:29;;;;;;;2.63;1.55;;;;;;;;;;5417104;26;20331;-80
2024/04/11 02:42:55;;;;;;;2.83;1.67;;;;;;;;;;5417541;26;20332;-80
2024/04/11 02:45:21;;;;;;;3.77;1.70;;;;;;;;;;5417096;26;20944;-80
2024/04/11 02:47:48;;;;;;;4.13;1.67;;;;;;;;;;5417113;26;20821;-80
2024/04/11 02:50:15;;;;;;;3.95;1.90;;;;;;;;;;5416139;26;20335;-80
2024/04/11 02:52:41;;;;;;;3.50;1.90;;;;;;;;;;5414747;26;20335;-80
2024/04/11 02:55:08;;;;;;;4.65;1.92;;;;;;;;;;5416851;26;20312;-80
2024/04/11 02:57:34;;;;;;;3.00;1.60;;;;;;;;;;5416479;26;20343;-80
2024/04/11 03:00:00;;;;;;;3.67;1.52;;;;;;;;;;5416932;26;20831;-80
2024/04/11 03:02:29;;;;;;;2.13;1.42;;;;;;;;;;5418046;26;20335;-80
2024/04/11 03:04:56;;;;;;;3.88;1.70;;;;;;;;;;5417830;26;20386;-80
2024/04/11 03:07:22;;;;;;;4.85;1.80;;;;;;;;;;5417846;26;20316;-80
2024/04/11 03:09:48;;;;;;;3.72;1.52;;;;;;;;;;5417319;26;20371;-80
2024/04/11 03:12:14;;;;;;;3.63;1.58;;;;;;;;;;5417251;26;20323;-80
2024/04/11 03:14:40;;;;;;;6.55;1.83;;;;;;;;;;5416429;26;20413;-80
2024/04/11 03:17:06;;;;;;;3.15;1.70;;;;;;;;;;5416707;26;20433;-80
2024/04/11 03:19:32;;;;;;;3.23;1.80;;;;;;;;;;5417185;26;20366;-80
2024/04/11 03:21:59;;;;;;;3.13;2.00;;;;;;;;;;5417107;26;20324;-80
2024/04/11 03:24:25;;;;;;;6.88;2.13;;;;;;;;;;5416781;26;20393;-80
2024/04/11 03:26:51;;;;;;;2.42;1.65;;;;;;;;;;5416006;26;20339;-80
2024/04/11 03:29:17;;;;;;;3.38;1.88;;;;;;;;;;5416394;26;20331;-80
2024/04/11 03:31:43;;;;;;;2.63;1.70;;;;;;;;;;5416489;26;20319;-80
2024/04/11 03:34:09;;;;;;;2.37;1.70;;;;;;;;;;5414786;26;20312;-80
2024/04/11 03:36:35;;;;;;;3.78;2.17;;;;;;;;;;5415985;26;20417;-80
2024/04/11 03:39:11;;;;;;;2.25;1.50;;;;;;;;;;5416069;26;20727;-80
2024/04/11 03:41:37;;;;;;;2.60;1.90;;;;;;;;;;5443980;26;20692;-80
2024/04/11 03:44:03;;;;;;;3.03;1.98;;;;;;;;;;5415657;26;20797;-80
2024/04/11 03:46:29;;;;;;;2.92;1.83;;;;;;;;;;5415832;26;20347;-80
2024/04/11 03:48:58;;;;;;;3.10;2.00;;;;;;;;;;5415222;26;20394;-80
2024/04/11 03:51:25;;;;;;;5.15;2.13;;;;;;;;;;5413996;26;20327;-80
2024/04/11 03:53:55;;;;;;;3.80;2.08;;;;;;;;;;5415661;26;20419;-80
2024/04/11 03:56:23;;;;;;;3.30;2.10;;;;;;;;;;5415515;26;20348;-80
2024/04/11 03:58:49;;;;;;;7.38;2.00;;;;;;;;;;5415227;26;20405;-80
2024/04/11 04:01:16;;;;;;;3.55;1.90;;;;;;;;;;5416091;26;20426;-80
2024/04/11 04:03:43;;;;;;;3.67;1.90;;;;;;;;;;5415671;26;20650;-80
2024/04/11 04:06:10;;;;;;;5.68;2.13;;;;;;;;;;5415653;26;20417;-80
2024/04/11 04:08:37;;;;;;;3.97;2.10;;;;;;;;;;5415715;26;20367;-80
2024/04/11 04:11:03;;;;;;;3.10;1.87;;;;;;;;;;5415628;26;20320;-80
2024/04/11 04:13:29;;;;;;;3.05;2.10;;;;;;;;;;5415546;26;20335;-80
2024/04/11 04:15:55;;;;;;;3.43;1.90;;;;;;;;;;5415576;26;20332;-80
2024/04/11 04:18:21;;;;;;;3.63;1.92;;;;;;;;;;5415302;26;20401;-80
2024/04/11 04:20:57;;;;;;;2.30;1.83;;;;;;;;;;5415164;26;20380;-80
2024/04/11 04:23:23;;;;;;;5.43;2.38;;;;;;;;;;5413584;26;20323;-80
2024/04/11 04:25:59;;;;;;;3.70;2.35;;;;;;;;;;5415240;26;20339;-80
2024/04/11 04:28:26;;;;;;;4.40;2.20;;;;;;;;;;5415009;26;20755;-80
2024/04/11 04:30:52;;;;;;;3.03;2.15;;;;;;;;;;5414450;26;20327;-80
2024/04/11 04:33:17;;;;;;;4.22;2.17;;;;;;;;;;5415527;26;20356;-80
2024/04/11 04:35:44;;;;;;;4.75;2.38;;;;;;;;;;5415006;26;20879;-80
2024/04/11 04:38:10;;;;;;;3.73;2.13;;;;;;;;;;5415225;26;20864;-80
2024/04/11 04:40:36;;;;;;;3.87;2.20;;;;;;;;;;5415239;26;20555;-80
2024/04/11 04:43:02;;;;;;;5.82;2.33;;;;;;;;;;5415502;26;20343;-80
2024/04/11 04:45:30;;;;;;;3.75;2.08;;;;;;;;;;5414990;26;20320;-80
2024/04/11 04:47:58;;;;;;;2.60;1.80;;;;;;;;;;5415131;26;20339;-80
2024/04/11 04:50:24;;;;;;;3.22;2.00;;;;;;;;;;5416071;26;20817;-80
2024/04/11 04:52:50;;;;;;;3.97;2.00;;;;;;;;;;5414669;26;20367;-80
2024/04/11 04:55:17;;;;;;;3.77;1.70;;;;;;;;;;5416281;26;20363;-80
2024/04/11 04:57:43;;;;;;;3.80;2.00;;;;;;;;;;5416053;26;20346;-80
2024/04/11 05:00:13;;;;;;;2.65;1.98;;;;;;;;;;5415998;26;20324;-80
2024/04/11 05:02:39;;;;;;;3.53;1.80;;;;;;;;;;5415820;26;20332;-80
2024/04/11 05:05:07;;;;;;;3.30;1.83;;;;;;;;;;5415893;26;20336;-80
2024/04/11 05:07:33;;;;;;;2.00;1.67;;;;;;;;;;5416272;26;20910;-80
2024/04/11 05:09:59;;;;;;;3.70;1.90;;;;;;;;;;5415540;26;20320;-80
2024/04/11 05:12:27;;;;;;;3.88;2.10;;;;;;;;;;5415931;26;20414;-80
2024/04/11 05:14:53;;;;;;;3.92;1.92;;;;;;;;;;5415704;26;20331;-80
2024/04/11 05:17:20;;;;;;;3.40;1.80;;;;;;;;;;5415750;26;20323;-80
2024/04/11 05:19:46;;;;;;;3.35;2.30;;;;;;;;;;5415495;26;20328;-80
2024/04/11 05:22:12;;;;;;;3.60;2.07;;;;;;;;;;5415890;26;20363;-80
2024/04/11 05:24:38;;;;;;;3.83;2.20;;;;;;;;;;5415896;26;20328;-80
2024/04/11 05:27:04;;;;;;;3.45;2.28;;;;;;;;;;5416241;26;20820;-80
2024/04/11 05:29:31;;;;;;;2.97;2.10;;;;;;;;;;5415362;26;20979;-80
2024/04/11 05:31:56;;;;;;;3.05;2.10;;;;;;;;;;5415684;26;21085;-80
2024/04/11 05:34:25;;;;;;;4.90;2.23;;;;;;;;;;5415196;26;20355;-80
2024/04/11 05:36:53;;;;;;;4.85;2.25;;;;;;;;;;5416317;26;20410;-81
2024/04/11 05:39:20;;;;;;;5.03;2.20;;;;;;;;;;5416097;26;20414;-80
2024/04/11 05:41:46;;;;;;;5.55;2.30;;;;;;;;;;5415044;26;20427;-80
2024/04/11 05:44:13;;;;;;;3.40;2.03;;;;;;;;;;5415133;26;20336;-80
2024/04/11 05:46:42;;;;;;;4.30;2.20;;;;;;;;;;5414984;26;20359;-80
2024/04/11 05:49:09;;;;;;;3.47;2.35;;;;;;;;;;5418325;26;20761;-81
2024/04/11 05:51:35;;;;;;;3.47;2.10;;;;;;;;;;5417419;26;21028;-81
2024/04/11 05:54:01;;;;;;;4.20;2.60;;;;;;;;;;5416262;26;20328;-81
2024/04/11 05:56:28;;;;;;;4.72;2.83;;;;;;;;;;5419474;26;20324;-81
2024/04/11 05:58:54;;;;;;;4.57;2.70;;;;;;;;;;5422617;26;20320;-81
2024/04/11 06:01:20;;;;;;;5.70;2.33;;;;;;;;;;5422766;26;20398;-81
2024/04/11 06:03:49;;;;;;;3.88;2.30;;;;;;;;;;5421261;26;20327;-81
2024/04/11 06:06:15;;;;;;;3.92;2.60;;;;;;;;;;5420237;26;20327;-81
2024/04/11 06:08:42;;;;;;;3.83;3.03;;;;;;;;;;5421554;26;20331;-81
2024/04/11 06:11:08;;;;;;;4.85;3.03;;;;;;;;;;5421666;26;20386;-81
2024/04/11 06:13:34;;;;;;;7.00;3.10;;;;;;;;;;5421512;26;20755;-81
2024/04/11 06:16:00;;;;;;;3.08;2.50;;;;;;;;;;5421954;26;20348;-81
2024/04/11 06:18:30;;;;;;;3.60;2.60;;;;;;;;;;5421285;26;20335;-81
2024/04/11 06:20:56;;;;;;;4.50;2.50;;;;;;;;;;5420636;26;20464;-81
2024/04/11 06:23:22;;;;;;;4.97;2.20;;;;;;;;;;5422130;26;20399;-81
2024/04/11 06:25:48;;;;;;;3.17;2.10;;;;;;;;;;5420953;26;20320;-81
2024/04/11 06:28:14;;;;;;;3.83;2.45;;;;;;;;;;5419359;26;20431;-81
2024/04/11 06:30:45;;;;;;;3.05;2.15;;;;;;;;;;5420958;26;20335;-81
2024/04/11 06:33:13;;;;;;;5.93;2.00;;;;;;;;;;5417627;26;20366;-81
2024/04/11 06:35:40;;;;;;;4.67;2.20;;;;;;;;;;5417816;26;20327;-81
2024/04/11 06:38:09;;;;;;;4.07;2.40;;;;;;;;;;5418193;26;20814;-81
2024/04/11 06:40:35;;;;;;;2.78;2.25;;;;;;;;;;5417803;26;20451;-81
2024/04/11 06:43:03;;;;;;;4.63;2.20;;;;;;;;;;5417043;26;20332;-81
2024/04/11 06:45:30;;;;;;;6.68;2.50;;;;;;;;;;5417455;26;20364;-81
2024/04/11 06:47:57;;;;;;;4.15;2.40;;;;;;;;;;5417293;26;20407;-81
2024/04/11 06:50:23;;;;;;;4.97;2.28;;;;;;;;;;5418110;26;20409;-81
2024/04/11 06:52:51;;;;;;;5.18;3.20;;;;;;;;;;5417895;26;20316;-81
2024/04/11 06:55:18;;;;;;;4.97;3.22;;;;;;;;;;5415458;26;20332;-81
2024/04/11 06:57:45;;;;;;;7.47;3.10;;;;;;;;;;5416598;26;20385;-81
2024/04/11 07:02:56;;;;;;;9.65;4.43;;;;;;;;;;5416770;26;20379;-80
2024/04/11 07:05:22;;;;;;;7.57;3.80;;;;;;;;;;5417352;26;20438;-81
2024/04/11 07:07:54;;;;;;;5.38;4.05;;;;;;;;;;5416184;26;20324;-81
2024/04/11 07:10:32;;;;;;;5.65;3.70;;;;;;;;;;5417043;26;20379;-81
2024/04/11 07:12:59;;;;;;;5.90;3.80;;;;;;;;;;5416432;26;20364;-81
2024/04/11 07:15:29;;;;;;;9.73;4.43;;;;;;;;;;5416475;26;20375;-81
2024/04/11 07:17:58;;;;;;;8.27;4.38;;;;;;;;;;5416945;26;20339;-80
2024/04/11 07:20:31;;;;;;;9.07;4.30;;;;;;;;;;5416965;26;20339;-81
2024/04/11 07:23:01;;;;;;;7.50;3.92;;;;;;;;;;5416703;26;20332;-81
2024/04/11 07:25:35;;;;;;;7.13;3.38;;;;;;;;;;5416661;26;20328;-81
2024/04/11 07:28:06;;;;;;;5.72;2.95;;;;;;;;;;5416245;26;20483;-81
2024/04/11 07:30:32;;;;;;;5.53;3.08;;;;;;;;;;5416590;26;20320;-81
2024/04/11 07:33:01;;;;;;;5.00;2.92;;;;;;;;;;5415844;26;20332;-80
2024/04/11 07:35:29;;;;;;;5.25;2.90;;;;;;;;;;5416381;26;20406;-81
2024/04/11 07:37:57;;;;;;;5.68;3.08;;;;;;;;;;5416487;26;20672;-80
2024/04/11 07:40:32;;;;;;;6.78;3.50;;;;;;;;;;5416922;26;20363;-82
2024/04/11 07:43:06;;;;;;;5.20;2.88;;;;;;;;;;5416880;26;20447;-81
2024/04/11 07:45:41;;;;;;;5.03;3.33;;;;;;;;;;5416651;26;20817;-81
2024/04/11 07:48:12;;;;;;;8.38;3.63;;;;;;;;;;5415334;26;20328;-82
2024/04/11 07:50:39;;;;;;;4.88;3.17;;;;;;;;;;5415984;26;20320;-81
2024/04/11 07:53:07;;;;;;;6.70;3.70;;;;;;;;;;5415977;26;20821;-82
2024/04/11 07:55:33;;;;;;;5.88;3.53;;;;;;;;;;5415084;26;20373;-82
2024/04/11 07:58:05;;;;;;;4.82;3.13;;;;;;;;;;5416294;26;20340;-82
2024/04/11 08:00:38;;;;;;;5.75;3.42;;;;;;;;;;5416280;26;20327;-82
2024/04/11 08:03:05;;;;;;;3.85;2.72;;;;;;;;;;5417111;26;20362;-82
2024/04/11 08:05:31;;;;;;;4.63;3.15;;;;;;;;;;5415954;26;20385;-82
2024/04/11 08:07:57;;;;;;;6.15;3.22;;;;;;;;;;5415760;26;20332;-82
2024/04/11 08:10:27;;;;;;;6.97;3.17;;;;;;;;;;5415810;26;20453;-82
2024/04/11 08:12:53;;;;;;;5.55;2.80;;;;;;;;;;5416585;26;20344;-82
2024/04/11 08:15:19;;;;;;;8.35;2.90;;;;;;;;;;5416140;26;20371;-82
2024/04/11 08:17:47;;;;;;;5.95;3.10;;;;;;;;;;5415240;26;20323;-82
2024/04/11 08:20:13;;;;;;;3.80;3.00;;;;;;;;;;5415391;26;20343;-82
2024/04/11 08:22:41;;;;;;;6.13;3.20;;;;;;;;;;5416066;26;20331;-82
2024/04/11 08:25:09;;;;;;;4.32;2.83;;;;;;;;;;5414692;26;20340;-82
2024/04/11 08:27:35;;;;;;;4.90;3.00;;;;;;;;;;5415469;26;20877;-82
2024/04/11 08:30:01;;;;;;;9.48;3.20;;;;;;;;;;5415325;26;20320;-82
2024/04/11 08:32:27;;;;;;;6.43;3.20;;;;;;;;;;5415575;26;20670;-82
2024/04/11 08:34:53;;;;;;;4.45;3.05;;;;;;;;;;5415074;26;20364;-82
2024/04/11 08:37:19;;;;;;;3.83;3.03;;;;;;;;;;5414481;26;20352;-82
2024/04/11 08:39:45;;;;;;;4.18;3.03;;;;;;;;;;5415789;26;20889;-82
2024/04/11 08:42:12;;;;;;;5.97;3.20;;;;;;;;;;5415381;26;20315;-82
2024/04/11 08:44:41;;;;;;;4.47;2.90;;;;;;;;;;5415098;26;20332;-82
2024/04/11 08:47:07;;;;;;;5.72;3.42;;;;;;;;;;5414754;26;20324;-81
2024/04/11 08:49:33;;;;;;;5.13;3.28;;;;;;;;;;5414671;26;20332;-82
2024/04/11 08:52:00;;;;;;;4.13;3.20;;;;;;;;;;5412020;26;20327;-82
2024/04/11 08:54:27;;;;;;;4.70;3.33;;;;;;;;;;5415334;26;20327;-82
2024/04/11 08:56:53;;;;;;;5.50;3.40;;;;;;;;;;5413087;26;20339;-81
2024/04/11 08:59:23;;;;;;;5.47;3.33;;;;;;;;;;5414439;26;20433;-81
2024/04/11 09:01:49;;;;;;;5.23;3.30;;;;;;;;;;5414996;26;20319;-81
2024/04/11 09:04:17;;;;;;;5.88;3.15;;;;;;;;;;5414553;26;20320;-81
2024/04/11 09:06:44;;;;;;;6.00;3.50;;;;;;;;;;5414849;26;20327;-82
2024/04/11 09:09:16;;;;;;;5.28;3.45;;;;;;;;;;5414643;26;20368;-82
2024/04/11 09:11:42;;;;;;;5.75;3.55;;;;;;;;;;5414205;26;20390;-81
2024/04/11 09:14:08;;;;;;;3.65;3.25;;;;;;;;;;5414414;26;20841;-82
2024/04/11 09:16:34;;;;;;;5.13;3.50;;;;;;;;;;5413940;26;20418;-81
2024/04/11 09:19:05;;;;;;;6.90;3.88;;;;;;;;;;5413986;26;20332;-81
2024/04/11 09:21:31;;;;;;;5.10;3.67;;;;;;;;;;5414054;26;20335;-81
2024/04/11 09:23:57;;;;;;;4.15;3.63;;;;;;;;;;5442070;26;20414;-82
2024/04/11 09:26:25;;;;;;;4.72;3.70;;;;;;;;;;5414097;26;20328;-81
2024/04/11 09:28:51;;;;;;;5.50;3.53;;;;;;;;;;5414046;26;20363;-82
2024/04/11 09:31:18;;;;;;;7.60;3.80;;;;;;;;;;5416764;26;20323;-81
2024/04/11 09:33:45;;;;;;;5.25;3.97;;;;;;;;;;5417924;26;20331;-81
2024/04/11 09:36:11;;;;;;;5.40;4.07;;;;;;;;;;5418564;26;20421;-81
2024/04/11 09:38:41;;;;;;;6.10;3.80;;;;;;;;;;5417963;26;20676;-81
2024/04/11 09:41:11;;;;;;;4.72;3.65;;;;;;;;;;5417671;26;20359;-81
2024/04/11 09:43:40;;;;;;;5.43;3.90;;;;;;;;;;5417327;26;20363;-81
2024/04/11 09:46:07;;;;;;;3.90;3.45;;;;;;;;;;5417769;26;20327;-82
2024/04/11 09:48:41;;;;;;;5.40;3.57;;;;;;;;;;5417407;26;20962;-82
2024/04/11 09:51:10;;;;;;;4.70;3.47;;;;;;;;;;5417577;26;20371;-81
2024/04/11 09:53:36;;;;;;;5.68;3.33;;;;;;;;;;5417017;26;20387;-81
2024/04/11 09:56:05;;;;;;;4.47;3.60;;;;;;;;;;5417081;26;20421;-81
2024/04/11 09:58:38;;;;;;;5.10;3.13;;;;;;;;;;5415796;26;20351;-81
2024/04/11 10:01:15;;;;;;;4.78;3.70;;;;;;;;;;5417569;26;20332;-81
2024/04/11 10:03:41;;;;;;;5.45;3.45;;;;;;;;;;5417290;26;20324;-81
2024/04/11 10:06:13;;;;;;;7.73;3.23;;;;;;;;;;5417062;26;20381;-81
2024/04/11 10:08:42;;;;;;;5.00;3.80;;;;;;;;;;5417173;26;20445;-81
2024/04/11 10:11:10;;;;;;;5.07;3.90;;;;;;;;;;5417027;26;20336;-81
2024/04/11 10:13:41;;;;;;;4.82;3.60;;;;;;;;;;5416927;26;20335;-81
2024/04/11 10:16:29;;;;;;;4.78;3.60;;;;;;;;;;5416441;26;20869;-81
2024/04/11 10:19:06;;;;;;;5.18;3.78;;;;;;;;;;5416949;26;20376;-82
2024/04/11 10:21:33;;;;;;;6.10;4.00;;;;;;;;;;5415266;26;20335;-81
2024/04/11 10:24:03;;;;;;;5.73;3.87;;;;;;;;;;5416782;26;20352;-81
2024/04/11 10:26:32;;;;;;;5.72;3.92;;;;;;;;;;5416840;26;20414;-81
2024/04/11 10:29:00;;;;;;;7.53;3.70;;;;;;;;;;5416997;26;20485;-81
2024/04/11 10:31:26;;;;;;;4.95;3.38;;;;;;;;;;5415542;26;20348;-81
2024/04/11 10:33:58;;;;;;;4.43;3.95;;;;;;;;;;5416938;26;20371;-81
2024/04/11 10:36:32;;;;;;;5.07;3.53;;;;;;;;;;5416695;26;20745;-81
2024/04/11 10:38:58;;;;;;;4.28;3.60;;;;;;;;;;5416936;26;20339;-81
2024/04/11 10:41:25;;;;;;;5.20;3.83;;;;;;;;;;5416218;26;20422;-81
2024/04/11 10:43:55;;;;;;;4.27;3.70;;;;;;;;;;5415959;26;20398;-81
2024/04/11 10:46:23;;;;;;;4.03;3.63;;;;;;;;;;5416666;26;20397;-81
2024/04/11 10:48:52;;;;;;;6.25;4.40;;;;;;;;;;5416253;26;20831;-81
2024/04/11 10:51:27;;;;;;;5.93;4.07;;;;;;;;;;5416284;26;20385;-81
2024/04/11 10:54:09;;;;;;;4.20;3.80;;;;;;;;;;5416381;26;20418;-81
2024/04/11 10:56:40;;;;;;;4.50;3.80;;;;;;;;;;5416449;26;20316;-81
2024/04/11 10:59:17;;;;;;;4.43;4.03;;;;;;;;;;5416370;26;20327;-81
2024/04/11 11:01:47;;;;;;;5.35;4.15;;;;;;;;;;5414964;26;20324;-81
2024/04/11 11:04:15;;;;;;;4.75;4.05;;;;;;;;;;5416584;26;20327;-81
2024/04/11 11:06:51;;;;;;;6.82;4.22;;;;;;;;;;5417146;26;20665;-81
2024/04/11 11:09:17;;;;;;;5.43;3.95;;;;;;;;;;5416848;26;20435;-81
2024/04/11 11:11:44;;;;;;;6.72;4.00;;;;;;;;;;5416917;26;20683;-81
2024/04/11 11:14:14;;;;;;;7.63;4.50;;;;;;;;;;5416322;26;20372;-81
2024/04/11 11:16:43;;;;;;;6.70;4.60;;;;;;;;;;5416269;26;20320;-81
2024/04/11 11:19:12;;;;;;;4.50;4.07;;;;;;;;;;5416712;26;20332;-81
2024/04/11 11:21:40;;;;;;;4.40;4.00;;;;;;;;;;5417166;26;20406;-81
2024/04/11 11:24:06;;;;;;;4.85;4.30;;;;;;;;;;5417255;26;20323;-81
2024/04/11 11:26:43;;;;;;;6.63;4.32;;;;;;;;;;5416469;26;20893;-81
2024/04/11 11:29:10;;;;;;;4.88;4.30;;;;;;;;;;5415952;26;20331;-82
2024/04/11 11:31:43;;;;;;;4.53;3.80;;;;;;;;;;5416263;26;20384;-81
2024/04/11 11:34:09;;;;;;;3.90;3.60;;;;;;;;;;5415824;26;20378;-82
2024/04/11 11:36:37;;;;;;;4.57;4.03;;;;;;;;;;5416063;26;20422;-82
2024/04/11 11:39:04;;;;;;;5.45;4.05;;;;;;;;;;5415729;26;20331;-81
2024/04/11 11:41:37;;;;;;;6.65;4.40;;;;;;;;;;5415985;26;20319;-82
2024/04/11 11:44:04;;;;;;;8.40;4.22;;;;;;;;;;5415623;26;20331;-82
2024/04/11 11:46:37;;;;;;;5.45;4.15;;;;;;;;;;5415796;26;20362;-82
2024/04/11 11:49:04;;;;;;;4.90;3.90;;;;;;;;;;5416023;26;20883;-82
2024/04/11 11:51:30;;;;;;;5.78;4.22;;;;;;;;;;5416802;26;20360;-82
2024/04/11 11:54:00;;;;;;;4.50;4.10;;;;;;;;;;5414601;26;20967;-82
2024/04/11 11:56:31;;;;;;;4.83;4.10;;;;;;;;;;5415672;26;20544;-82
2024/04/11 11:59:02;;;;;;;4.47;4.03;;;;;;;;;;5415858;26;20331;-82
2024/04/11 12:01:29;;;;;;;4.72;4.30;;;;;;;;;;5414635;26;20427;-82
2024/04/11 12:03:59;;;;;;;5.28;4.07;;;;;;;;;;5415873;26;20375;-82
2024/04/11 12:06:35;;;;;;;5.00;4.00;;;;;;;;;;5415315;26;20320;-82
2024/04/11 12:09:09;;;;;;;4.57;3.85;;;;;;;;;;5415738;26;20343;-82
2024/04/11 12:11:40;;;;;;;4.65;3.97;;;;;;;;;;5415991;26;20397;-82
2024/04/11 12:14:06;;;;;;;5.15;4.35;;;;;;;;;;5415376;26;20383;-82
2024/04/11 12:16:38;;;;;;;5.72;3.97;;;;;;;;;;5415397;26;20328;-82
2024/04/11 12:19:05;;;;;;;5.28;4.65;;;;;;;;;;5415806;26;20335;-82
2024/04/11 12:21:37;;;;;;;8.60;4.78;;;;;;;;;;5415192;26;20356;-82
2024/04/11 12:24:03;;;;;;;4.80;4.30;;;;;;;;;;5415040;26;20697;-82
2024/04/11 12:26:32;;;;;;;5.45;4.35;;;;;;;;;;5415057;26;20320;-82
2024/04/11 12:28:59;;;;;;;5.30;4.20;;;;;;;;;;5414968;26;20364;-82
2024/04/11 12:31:26;;;;;;;6.13;3.97;;;;;;;;;;5414990;26;20367;-82
2024/04/11 12:33:56;;;;;;;6.78;4.10;;;;;;;;;;5414456;26;20367;-82
2024/04/11 12:36:46;;;;;;;4.88;4.40;;;;;;;;;;5415062;26;20363;-82
2024/04/11 12:39:12;;;;;;;5.35;4.20;;;;;;;;;;5415367;26;20379;-82
2024/04/11 12:41:45;;;;;;;4.82;4.38;;;;;;;;;;5413428;26;20732;-82
2024/04/11 12:44:11;;;;;;;5.78;4.13;;;;;;;;;;5415323;26;20359;-82
2024/04/11 12:46:56;;;;;;;4.38;3.95;;;;;;;;;;5415294;26;20348;-82
2024/04/11 12:49:26;;;;;;;5.32;4.35;;;;;;;;;;5414871;26;20813;-82
2024/04/11 12:51:55;;;;;;;4.88;4.40;;;;;;;;;;5414150;26;20347;-82
2024/04/11 12:54:26;;;;;;;5.15;4.32;;;;;;;;;;5414725;26;20425;-82
2024/04/11 12:56:53;;;;;;;4.47;3.97;;;;;;;;;;5414373;26;20328;-82
2024/04/11 12:59:30;;;;;;;5.07;4.30;;;;;;;;;;5414775;26;20350;-82
2024/04/11 13:01:56;;;;;;;4.37;3.87;;;;;;;;;;5414464;26;20323;-82
2024/04/11 13:04:32;;;;;;;4.20;3.80;;;;;;;;;;5413145;26;20836;-82
2024/04/11 13:07:02;;;;;;;4.70;4.10;;;;;;;;;;5417510;26;20414;-82
2024/04/11 13:09:35;;;;;;;5.43;4.57;;;;;;;;;;5418098;26;20367;-82
2024/04/11 13:12:04;;;;;;;4.70;4.30;;;;;;;;;;5418483;26;20379;-82
2024/04/11 13:17:22;;;;;;;5.22;4.38;;;;;;;;;;5418142;26;20340;-82
2024/04/11 13:19:48;;;;;;;5.15;4.10;;;;;;;;;;5418188;26;20731;-82
2024/04/11 13:22:14;;;;;;;4.97;3.90;;;;;;;;;;5417925;26;20426;-82
2024/04/11 13:24:45;;;;;;;4.90;4.40;;;;;;;;;;5418044;26;20327;-82
2024/04/11 13:27:28;;;;;;;5.80;3.92;;;;;;;;;;5418420;26;20852;-82
2024/04/11 13:29:59;;;;;;;4.90;4.27;;;;;;;;;;5417421;26;20844;-82
2024/04/11 13:32:30;;;;;;;4.20;3.80;;;;;;;;;;5417554;26;20406;-82
2024/04/11 13:35:06;;;;;;;5.00;4.07;;;;;;;;;;5417888;26;21125;-82
2024/04/11 13:37:41;;;;;;;8.52;5.85;;;;;;;;;;5418648;26;20331;-82
2024/04/11 13:40:57;;;;;;;5.45;4.47;;;;;;;;;;5419934;26;20327;-82
2024/04/11 13:43:17;;;;;;;4.70;4.27;;;;;;;;;;5419816;26;20331;-82
2024/04/11 13:45:43;;;;;;;4.80;4.03;;;;;;;;;;5418817;26;20335;-82
2024/04/11 13:48:10;;;;;;;4.25;3.85;;;;;;;;;;5418814;26;20340;-82
2024/04/11 13:50:44;;;;;;;4.07;3.67;;;;;;;;;;5418474;26;20367;-82
2024/04/11 13:53:14;;;;;;;4.00;3.60;;;;;;;;;;5418431;26;20336;-82
2024/04/11 13:55:43;;;;;;;5.93;3.95;;;;;;;;;;5418048;26;20943;-82
2024/04/11 13:58:12;;;;;;;4.10;3.13;;;;;;;;;;5418046;26;20379;-82
2024/04/11 14:01:02;;;;;;;4.07;3.78;;;;;;;;;;5417910;26;20327;-82
2024/04/11 14:03:44;;;;;;;4.43;3.85;;;;;;;;;;5418619;26;20435;-82
2024/04/11 14:08:42;;;;;;;3.88;3.47;;;;;;;;;;5417565;26;20432;-82
2024/04/11 14:11:16;;;;;;;4.45;4.03;;;;;;;;;;5417559;26;20331;-82
2024/04/11 14:13:43;;;;;;;4.18;3.78;;;;;;;;;;5418809;26;20400;-82
2024/04/11 14:16:12;;;;;;;4.77;4.27;;;;;;;;;;5418707;26;20331;-82
2024/04/11 14:18:47;;;;;;;5.28;4.13;;;;;;;;;;5416878;26;20777;-82
2024/04/11 14:21:48;;;;;;;5.15;3.88;;;;;;;;;;5416530;26;20343;-82
2024/04/11 14:24:30;;;;;;;3.83;3.53;;;;;;;;;;5417080;26;20351;-82
2024/04/11 14:26:58;;;;;;;3.85;3.45;;;;;;;;;;5416656;26;20344;-82
2024/04/11 14:29:24;;;;;;;4.78;3.95;;;;;;;;;;5417072;26;20340;-82
2024/04/11 14:31:54;;;;;;;4.00;3.60;;;;;;;;;;5417765;26;20759;-82
2024/04/11 14:34:22;;;;;;;4.90;3.83;;;;;;;;;;5418069;26;20335;-82
2024/04/11 14:37:10;;;;;;;5.88;3.97;;;;;;;;;;5417375;26;20344;-82
2024/04/11 14:39:36;;;;;;;4.90;4.30;;;;;;;;;;5417120;26;20371;-82
2024/04/11 14:42:05;;;;;;;4.93;3.90;;;;;;;;;;5416948;26;20435;-82
2024/04/11 14:44:36;;;;;;;4.53;3.70;;;;;;;;;;5417529;26;20375;-82
2024/04/11 14:47:02;;;;;;;4.67;3.50;;;;;;;;;;5417283;26;20332;-82
2024/04/11 14:49:28;;;;;;;4.07;3.33;;;;;;;;;;5417687;26;20339;-82
2024/04/11 14:51:56;;;;;;;4.70;3.60;;;;;;;;;;5415445;26;20820;-82
2024/04/11 14:54:26;;;;;;;4.43;3.33;;;;;;;;;;5418813;26;20327;-82
2024/04/11 14:56:55;;;;;;;3.77;3.33;;;;;;;;;;5418943;26;20425;-82
2024/04/11 14:59:30;;;;;;;3.88;3.25;;;;;;;;;;5419599;26;20912;-83